ROTAER D-AMDT 4/20 D-AMDT 9/20 Ver Mudanças

JUVENAL LOUREIRO CARDOSO ( SBPO ) / PATO BRANCO, PR 26 13 02S/052 41 40W
AD PUB 4W UTC-3 VFR IFR L21 , L26 823 (2700)

07 - L12 - ( 1317x30 ASPH 50/F/A/X/T L14 , L15 ) - L12 - 25

SBCW (CINDACTA 2)
COM -
AFIS [2] 130.800
CMB- [1] PF TF
MET -

[3] [4] CMA 1,2,3,4

AIS - [2]

RMK -

OUTRAS LUZES, FONTE SECUNDÁRIA DE ENERGIA
  1. Solicitações de balizamento e informações pelos TEL: (46) 3902-1313, (46) 99919-4101, (46) 99971-2433, (46) 99141-1082 e (46) 99971-9651. OPR Prefeitura Municipal
COMPL -
  • [1] (MON,TUE,WED,THU,FRI 0900-2100) - O/R: Demais HR O/R, TEL: (46) 3225-2513. OPR Landin.
  • [2] (MON,TUE,WED,THU,FRI 1630-1930)
  • [3] AUTOATENDIMENTO
  • [4] (DLY 1500-2000)
TEMP (0)

Suplementos AIP (0)

NOTAM (4)

AGA

E0239/20 N 13/02/2020 15:47
MET CMA (1 A 4) HR SER 1000-1500


ATM

E0190/20 N 03/02/2020 19:04
AFIS HR SER SUN TIL FRI 1000-1500


OTR

E2833/19 N 19/12/2019 14:13
AIS OPR NA MODALIDADE DE AUTOATENDIMENTO
RMK: PARA INFO ADDN, CONSULTAR O CENTRO DE
INFORMACOES AERONAUTICAS CURITIBA (C-AIS CW)
TEL PLN: (41) 3381-1195 E FAX (41) 3381-1198

E0149/20 N 29/01/2020 19:20
AIS HR SER SUN TIL FRI 1000-1500


Nascer/Por do Sol

09:22

22:05


METAR

TATE[HY000] [2002] php_network_getaddresses: getaddrinfo failed: Nome ou serviço desconhecido

TAF

251630Z 2518/2606 09010KT 8000 BKN015 TX27/2518Z TN20/2605Z PROB40 2521/2606 4000 RA BKN012 BKN020 RMK PEB=


Cartas (4)

IAC


SID



Rotas Preferenciais (0)